• Join FlightAware (Why Join?)
  • Login
  • US Flag 
03:53AM EST


 

Airport Tracker/Info


-or-


 

Live Flight TrackerFlight Track Log ✈ UAL582 ✈ 08-Jul-2013 ✈ CYYZ - KORD

Flight Track Log - Related Links

Times and Time Zones

All times are in EDT time to prevent confusion due to time zone crossing. See the UAL582 flight status page for this flight to view local times or setup timezone preferences in your user account.

Time Position Orientation Groundspeed Altitude Reporting Facility
EDT Latitude Longitude Course Direction KTS MPH feet Rate Location/Type
06:37PM 42.1167 -83.5500 90° East 250 288 12,000  Level Toronto Center
06:38PM 42.1167 -83.4333 90° East 260 299 12,000 -240 Level Toronto Center
06:39PM 42.1167 -83.3333 90° East 260 299 11,600 -660 Descending Toronto Center
06:40PM 42.1333 -83.2500 75° East 260 299 10,700 -1,200 Descending Toronto Center
06:41PM 42.2000 -83.1833 37° Northeast 240 276 9,300 -1,260 Descending Toronto Center
06:42PM 42.2500 -83.1500 26° Northeast 230 265 8,200 -660 Descending Toronto Center
06:43PM 42.3000 -83.1000 36° Northeast 220 253 8,000 -120 Descending Toronto Center
06:44PM 42.3500 -83.0667 26° Northeast 220 253 8,000  Level Toronto Center
06:45PM 42.4000 -83.0167 36° Northeast 220 253 8,000 -540 Level Toronto Center
06:47PM 42.4833 -83.0500 344° North 180 207 6,400 -720 Descending Toronto Center
06:48PM 42.4667 -83.1167 251° West 170 196 6,000 -360 Descending Toronto Center
06:49PM 42.4333 -83.1500 216° Southwest 180 207 5,700 -120 Descending Toronto Center
06:52PM 42.4815 -83.5514 279° West  Level FlightAware Approximate
06:59PM 42.5746 -84.9040 277° West  Level FlightAware Approximate
07:00PM 42.5848 -85.0972 274° West  Level FlightAware Approximate
07:01PM 42.5941 -85.2908 274° West  Level FlightAware Approximate
07:02PM 42.6031 -85.4845 274° West  Level FlightAware Approximate
07:03PM 42.6117 -85.6783 274° West  Level FlightAware Approximate
07:04PM 42.6200 -85.8720 273° West  Level FlightAware Approximate
07:05PM 42.6280 -86.0659 273° West  Level FlightAware Approximate
07:06PM 42.6333 -86.2599 270° West  Level FlightAware Approximate
07:07PM 42.5970 -86.4472 257° West  Level FlightAware Approximate
07:08PM 42.5624 -86.6458 257° West  Level FlightAware Approximate
07:09PM 42.5165 -86.8397 250° West  Level FlightAware Approximate
07:10PM 42.4670 -87.0321 251° West  Level FlightAware Approximate
07:11PM 42.4150 -87.2218 246° West  Level FlightAware Approximate
07:12PM 42.3672 -87.4136 257° West  Level FlightAware Approximate
07:13PM 42.2850 -87.5656 206° Southwest  Level FlightAware Approximate
07:14PM 42.1739 -87.6927 217° Southwest  Level FlightAware Approximate
07:15PM 42.0632 -87.8202 217° Southwest  Level FlightAware Approximate
07:16PM 41.9817 -87.9067 206° Southwest  Level Estimated
07:17PM 41.9817 -87.9067 206° Southwest  Level Estimated
07:18PM 41.9817 -87.9067 206° Southwest  Level Estimated
07:19PM 41.9817 -87.9067 206° Southwest  Level Estimated
07:20PM 41.9817 -87.9067 206° Southwest  Level Estimated
07:21PM 41.9817 -87.9067 206° Southwest  Level Estimated
07:22PM 41.9817 -87.9067 206° Southwest  Level Estimated
07:23PM 41.9817 -87.9067 206° Southwest  Level Estimated
07:24PM 41.9817 -87.9067 206° Southwest  Level Estimated
07:25PM 41.9817 -87.9067 206° Southwest  Level Estimated
07:26PM 41.9817 -87.9067 206° Southwest  Level Estimated
07:27PM 41.9817 -87.9067 206° Southwest  Level Estimated
07:28PM 41.9817 -87.9067 206° Southwest  Level Estimated
07:29PM 41.9817 -87.9067 206° Southwest  Level Estimated
07:30PM 41.9817 -87.9067 206° Southwest  Level Estimated
07:31PM 41.9817 -87.9067 206° Southwest  Level Estimated
07:32PM 41.9817 -87.9067 206° Southwest  Level Estimated
07:33PM 41.9817 -87.9067 206° Southwest  Level Estimated
07:34PM 41.9817 -87.9067 206° Southwest  Level Estimated
07:34PM 43.6833 -79.5333 206° Southwest 170 196 2,200  Level Toronto Center
07:35PM 41.9817 -87.9067 206° Southwest  Level Estimated
07:35PM 43.7333 -79.5000 26° Northeast 230 265 4,100  Level Toronto Center
07:36PM 41.9817 -87.9067 206° Southwest  Level Estimated
07:36PM 43.8000 -79.5000 360° North 270 311 7,500  Level Toronto Center
07:37PM 41.9817 -87.9067 206° Southwest  Level Estimated
07:37PM 43.8500 -79.5667 316° Northwest 290 334 10,600  Level Toronto Center
07:38PM 41.9817 -87.9067 206° Southwest  Level Estimated
07:38PM 43.9167 -79.6333 324° Northwest 300 345 12,900  Level Toronto Center
07:39PM 41.9817 -87.9067 206° Southwest  Level Estimated
07:39PM 43.9833 -79.7333 313° West 330 380 15,600  Level Toronto Center
07:40PM 41.9817 -87.9067 206° Southwest  Level Estimated
07:40PM 44.0333 -79.8333 305° West 340 391 17,600  Level Toronto Center
07:41PM 44.1000 -79.9333 313° West 360 414 19,900 2,040 Climbing Toronto Center
07:42PM 44.1667 -80.0500 309° West 360 414 21,700 1,740 Climbing Toronto Center
07:43PM 44.2333 -80.1667 309° West 370 426 23,400 1,560 Climbing Toronto Center
07:44PM 44.2833 -80.2833 301° West 380 437 24,900 1,380 Climbing Toronto Center
07:45PM 44.3333 -80.4333 295° West 380 437 26,200 1,200 Climbing Toronto Center
07:46PM 44.2833 -80.5333 235° Southwest 390 449 27,300 1,200 Climbing Toronto Center
07:47PM 44.2333 -80.7000 247° West 400 460 28,700 1,260 Climbing Toronto Center
07:48PM 44.1833 -80.8167 239° Southwest 410 472 29,900 960 Climbing Toronto Center
07:49PM 44.1000 -80.9500 229° Southwest 420 483 30,700 1,080 Climbing Toronto Center
07:50PM 44.0500 -81.1167 247° West 430 495 32,100 1,320 Climbing Toronto Center
07:51PM 44.0000 -81.2500 243° Southwest 420 483 33,400 900 Climbing Toronto Center
07:52PM 43.9333 -81.4167 241° Southwest 420 483 34,000 300 Climbing Toronto Center
07:53PM 43.8833 -81.5500 243° Southwest 440 506 34,000  Level Toronto Center
07:54PM 43.8333 -81.6833 243° Southwest 440 506 34,000  Level Toronto Center
07:55PM 43.7667 -81.8500 241° Southwest 430 495 34,000  Level Toronto Center
07:56PM 43.7000 -81.9833 235° Southwest 430 495 34,000  Level Toronto Center
07:57PM 43.6333 -82.1167 235° Southwest 440 506 34,000  Level Toronto Center
07:58PM 43.6239 -82.2147 262° West 437 503 34,000  Level Cleveland Center
07:59PM 43.5614 -82.3592 239° Southwest 437 503 34,000  Level Cleveland Center
08:00PM 43.5008 -82.5036 240° Southwest 437 503 34,000  Level Cleveland Center
08:01PM 43.4400 -82.6503 240° Southwest 437 503 34,000  Level Cleveland Center
08:02PM 43.3789 -82.7939 240° Southwest 437 503 34,000  Level Cleveland Center
08:03PM 43.3156 -82.9400 239° Southwest 442 509 34,000  Level Cleveland Center
08:04PM 43.2522 -83.0831 239° Southwest 442 509 34,000 -120 Level Cleveland Center
08:05PM 43.1817 -83.2511 240° Southwest 451 519 33,800 -600 Descending Cleveland Center
08:06PM 43.1178 -83.4017 240° Southwest 457 526 32,900 -960 Descending Cleveland Center
08:07PM 43.0536 -83.5494 239° Southwest 457 526 31,900 -1,020 Descending Cleveland Center
08:08PM 42.9911 -83.7000 240° Southwest 457 526 30,900 -1,020 Descending Cleveland Center
08:09PM 42.9575 -83.8656 255° West 457 526 29,900 -1,020 Descending Cleveland Center
08:10PM 42.9381 -84.0347 261° West 457 526 28,900 -960 Descending Cleveland Center
08:12PM 42.9150 -84.2800 263° West 450 518 27,400 -1,020 Descending Chicago Center
08:13PM 42.8947 -84.4772 262° West 440 506 26,300 -720 Descending Chicago Center
08:14PM 42.8786 -84.6383 262° West 431 496 26,000 -180 Descending Chicago Center
08:15PM 42.8619 -84.7981 262° West 427 491 26,000  Level Chicago Center
08:16PM 42.8456 -84.9564 262° West 425 489 26,000  Level Chicago Center
08:17PM 42.8286 -85.1147 262° West 423 487 26,000 -480 Level Chicago Center
08:18PM 42.8114 -85.2728 262° West 422 486 25,100 -900 Descending Chicago Center
08:19PM 42.7939 -85.4317 262° West 424 488 24,200 -1,140 Descending Chicago Center
08:20PM 42.7644 -85.6181 258° West 418 481 22,800 -1,200 Descending Chicago Center
08:21PM 42.7372 -85.7711 256° West 415 478 21,800 -1,020 Descending Chicago Center
08:22PM 42.7094 -85.9222 256° West 410 472 20,800 -900 Descending Chicago Center
08:23PM 42.6831 -86.0686 256° West 399 459 20,000 -420 Descending Chicago Center
08:24PM 42.6572 -86.2111 256° West 388 447 20,000  Level Chicago Center
08:25PM 42.6294 -86.3494 255° West 379 436 20,000 -720 Level Chicago Center
08:26PM 42.6033 -86.4892 256° West 380 437 18,500 -1,860 Descending Chicago Center
08:27PM 42.5739 -86.6481 256° West 363 418 16,200 -2,040 Descending Chicago Center
08:28PM 42.5483 -86.7769 255° West 355 409 14,400 -1,800 Descending Chicago Center
08:29PM 42.5156 -86.8919 249° West 334 384 12,600 -1,800 Descending Chicago Center
08:30PM 42.4856 -87.0078 251° West 327 376 10,800 -1,380 Descending Chicago Center
08:31PM 42.4536 -87.1147 248° West 308 354 9,800 -1,260 Descending Chicago Center
08:32PM 42.3867 -87.1697 211° Southwest 293 337 8,300 -1,500 Descending Chicago Center
08:33PM 42.3075 -87.2158 203° Southwest 288 331 6,800 -1,440 Descending Chicago Center
08:34PM 42.2358 -87.2561 203° Southwest 280 322 5,400 -960 Descending Chicago Center
08:35PM 42.1514 -87.3039 203° Southwest 277 319 4,900 -720 Descending Chicago Center
08:36PM 42.0819 -87.3444 203° Southwest 273 314 4,000 -480 Descending Chicago Center
08:37PM 42.0175 -87.3869 206° Southwest 264 304 4,000  Level Chicago Center
08:38PM 42.0028 -87.4592 255° West 221 254 4,000  Level Chicago Center
08:39PM 42.0019 -87.5372 269° West 214 246 4,000  Level Chicago Center
08:41PM 42.0031 -87.6297 271° West 210 242 4,000 -300 Level Chicago Center
08:42PM 42.0031 -87.7069 270° West 210 242 3,500 -540 Descending Chicago Center